Time;durP1;ratioP1;P1;durP2;ratioP2;P2;SDS_P1;SDS_P2;PMS_P1;PMS_P2;Temp;Humidity;BMP_temperature;BMP_pressure;BME280_temperature;BME280_humidity;BME280_pressure;Samples;Min_cycle;Max_cycle;Signal;HPM_P1;HPM_P2
2021/05/21 00:02:18;;;;;;;2.70;1.70;;;14.10;96.90;;;;;;4921076;29;20194;-71
2021/05/21 00:04:43;;;;;;;2.83;1.40;;;14.10;96.90;;;;;;4920465;29;20190;-71
2021/05/21 00:07:09;;;;;;;2.40;1.50;;;14.10;97.00;;;;;;4935686;29;20215;-70
2021/05/21 00:09:34;;;;;;;2.53;1.70;;;14.00;97.00;;;;;;4921667;29;20183;-70
2021/05/21 00:12:00;;;;;;;2.43;1.50;;;14.00;97.00;;;;;;4921198;29;20244;-70
2021/05/21 00:14:25;;;;;;;3.47;1.70;;;14.00;97.10;;;;;;4920360;29;20238;-70
2021/05/21 00:16:53;;;;;;;3.50;1.80;;;14.00;97.10;;;;;;4920906;29;20195;-70
2021/05/21 00:19:18;;;;;;;2.57;1.40;;;14.00;97.20;;;;;;4921775;29;20179;-71
2021/05/21 00:21:44;;;;;;;2.57;1.73;;;13.90;97.40;;;;;;4920334;29;20438;-71
2021/05/21 00:24:09;;;;;;;3.90;2.10;;;13.90;97.30;;;;;;4920441;29;20585;-71
2021/05/21 00:26:35;;;;;;;3.00;2.30;;;13.80;97.30;;;;;;4920359;29;20641;-71
2021/05/21 00:29:01;;;;;;;2.93;1.80;;;13.80;97.40;;;;;;4921580;29;20183;-70
2021/05/21 00:31:26;;;;;;;1.97;1.50;;;13.80;97.40;;;;;;4920567;29;20179;-71
2021/05/21 00:33:52;;;;;;;2.70;1.97;;;13.80;97.50;;;;;;4920457;29;20561;-71
2021/05/21 00:36:17;;;;;;;2.83;1.50;;;13.70;97.60;;;;;;4919902;29;20205;-71
2021/05/21 00:38:43;;;;;;;3.47;1.90;;;13.70;97.70;;;;;;4920246;29;20198;-70
2021/05/21 00:41:08;;;;;;;4.23;1.70;;;13.70;97.80;;;;;;4921180;29;20175;-71
2021/05/21 00:43:34;;;;;;;2.33;1.70;;;13.70;98.10;;;;;;4920223;29;20171;-71
2021/05/21 00:46:03;;;;;;;3.75;2.30;;;13.70;97.80;;;;;;4919088;29;20510;-71
2021/05/21 00:48:29;;;;;;;2.93;1.90;;;13.70;97.90;;;;;;4920280;29;20179;-71
2021/05/21 00:50:54;;;;;;;2.50;1.40;;;13.70;97.80;;;;;;4921258;29;20876;-70
2021/05/21 00:53:29;;;;;;;1.50;1.40;;;13.70;97.90;;;;;;4919710;29;20270;-71
2021/05/21 00:56:00;;;;;;;2.93;1.77;;;13.70;97.90;;;;;;4919429;29;20232;-71
2021/05/21 00:58:27;;;;;;;2.23;1.60;;;13.70;97.80;;;;;;4919587;29;20521;-71
2021/05/21 01:00:54;;;;;;;1.90;1.50;;;13.70;97.90;;;;;;4921218;29;20494;-70
2021/05/21 01:03:19;;;;;;;2.30;1.97;;;13.70;97.80;;;;;;4919888;29;20423;-70
2021/05/21 01:05:45;;;;;;;2.27;1.60;;;13.70;97.80;;;;;;4919836;29;20486;-70
2021/05/21 01:08:11;;;;;;;3.20;1.50;;;13.80;97.80;;;;;;4920316;29;20526;-70
2021/05/21 01:10:36;;;;;;;2.97;1.67;;;13.70;97.80;;;;;;4935012;29;20633;-70
2021/05/21 01:13:02;;;;;;;1.70;1.30;;;13.70;97.90;;;;;;4920905;29;20273;-70
2021/05/21 01:15:28;;;;;;;2.17;1.23;;;13.70;97.90;;;;;;4919318;29;20245;-70
2021/05/21 01:17:53;;;;;;;2.60;1.60;;;13.70;98.00;;;;;;4920280;29;20198;-70
2021/05/21 01:20:19;;;;;;;2.60;1.43;;;13.70;98.00;;;;;;4919602;29;20196;-70
2021/05/21 01:22:44;;;;;;;2.60;1.53;;;13.70;98.00;;;;;;4934911;29;20210;-70
2021/05/21 01:25:10;;;;;;;1.93;1.37;;;13.70;98.00;;;;;;4920358;29;20198;-69
2021/05/21 01:27:36;;;;;;;1.50;1.40;;;13.70;98.10;;;;;;4936278;29;20204;-70
2021/05/21 01:30:05;;;;;;;2.25;1.40;;;13.80;98.30;;;;;;4923979;29;20720;-70
2021/05/21 01:32:31;;;;;;;2.30;1.50;;;13.70;98.20;;;;;;4943635;29;20179;-70
2021/05/21 01:34:56;;;;;;;2.13;1.63;;;13.80;98.20;;;;;;4943143;29;20500;-70
2021/05/21 01:37:22;;;;;;;2.30;1.20;;;13.70;98.20;;;;;;4942462;29;20201;-70
2021/05/21 01:39:50;;;;;;;2.10;1.10;;;13.70;98.30;;;;;;4943077;29;20683;-70
2021/05/21 01:42:16;;;;;;;2.20;1.63;;;13.70;98.50;;;;;;4939967;29;20567;-71
2021/05/21 01:44:42;;;;;;;3.30;1.73;;;13.70;98.50;;;;;;4938048;29;20476;-71
2021/05/21 01:47:12;;;;;;;2.20;1.47;;;13.70;98.60;;;;;;4938127;28;20327;-71
2021/05/21 01:49:38;;;;;;;2.40;1.53;;;13.60;98.60;;;;;;4938121;29;20399;-70
2021/05/21 01:52:04;;;;;;;1.97;1.20;;;13.60;98.60;;;;;;4936745;29;20478;-70
2021/05/21 01:54:30;;;;;;;1.33;1.23;;;13.70;99.00;;;;;;4937883;29;20477;-70
2021/05/21 01:56:57;;;;;;;1.80;1.50;;;13.60;98.60;;;;;;4936918;29;20437;-70
2021/05/21 01:59:23;;;;;;;2.00;1.40;;;13.60;98.70;;;;;;4939371;29;20405;-70
2021/05/21 02:01:50;;;;;;;1.77;1.67;;;13.60;98.90;;;;;;4937251;29;20410;-70
2021/05/21 02:04:25;;;;;;;1.77;1.50;;;13.50;98.80;;;;;;4938184;28;20436;-71
2021/05/21 02:06:51;;;;;;;3.77;1.80;;;13.50;99.00;;;;;;4937933;29;20409;-70
2021/05/21 02:09:17;;;;;;;1.53;1.40;;;13.50;99.00;;;;;;4938125;29;20888;-71
2021/05/21 02:11:42;;;;;;;1.67;1.30;;;13.50;99.00;;;;;;4936948;29;20170;-70
2021/05/21 02:14:08;;;;;;;2.67;1.50;;;13.50;99.00;;;;;;4936380;29;20975;-69
2021/05/21 02:16:33;;;;;;;1.87;1.53;;;13.50;99.00;;;;;;4940923;29;20478;-69
2021/05/21 02:18:59;;;;;;;1.87;1.13;;;13.50;99.10;;;;;;4937772;29;20253;-71
2021/05/21 02:21:31;;;;;;;1.50;1.40;;;13.50;99.10;;;;;;4937962;29;20524;-71
2021/05/21 02:24:00;;;;;;;1.67;1.30;;;13.50;99.20;;;;;;4950514;29;20182;-70
2021/05/21 02:26:26;;;;;;;1.47;1.30;;;13.50;99.30;;;;;;4937456;29;20437;-70
2021/05/21 02:28:51;;;;;;;1.90;1.53;;;13.50;99.40;;;;;;4937526;29;20421;-70
2021/05/21 02:31:23;;;;;;;1.63;1.43;;;13.50;99.40;;;;;;5132138;27;20518;-70
2021/05/21 02:33:48;;;;;;;3.07;1.40;;;13.50;99.50;;;;;;5131606;28;20958;-69
2021/05/21 02:36:14;;;;;;;2.40;1.80;;;13.40;99.50;;;;;;5131764;27;20560;-71
2021/05/21 02:38:40;;;;;;;19.53;2.43;;;13.40;99.60;;;;;;5132237;27;20168;-70
2021/05/21 02:41:05;;;;;;;2.23;1.40;;;13.40;99.60;;;;;;5138777;27;20241;-68
2021/05/21 02:43:31;;;;;;;2.73;1.60;;;13.40;99.70;;;;;;5131204;28;20191;-70
2021/05/21 02:45:56;;;;;;;1.43;1.33;;;13.40;99.80;;;;;;5130013;27;20667;-70
2021/05/21 02:48:22;;;;;;;3.03;1.60;;;13.40;99.80;;;;;;5132473;27;20665;-70
2021/05/21 02:50:48;;;;;;;1.50;1.40;;;13.40;99.80;;;;;;5131575;28;20199;-70
2021/05/21 02:53:13;;;;;;;2.87;1.60;;;13.40;99.80;;;;;;5131591;28;20194;-71
2021/05/21 02:55:39;;;;;;;2.57;1.40;;;13.40;99.90;;;;;;5129784;28;20255;-70
2021/05/21 02:58:04;;;;;;;2.10;1.40;;;13.40;99.70;;;;;;5132053;28;20172;-71
2021/05/21 03:00:30;;;;;;;1.90;1.30;;;13.40;99.80;;;;;;5131481;27;20716;-70
2021/05/21 03:02:56;;;;;;;1.83;1.50;;;13.40;99.90;;;;;;5131720;28;20276;-70
2021/05/21 03:05:24;;;;;;;1.43;1.33;;;13.50;99.90;;;;;;5131335;27;20278;-71
2021/05/21 03:07:55;;;;;;;1.27;1.17;;;13.50;99.80;;;;;;5113748;28;20548;-70
2021/05/21 03:10:26;;;;;;;3.03;1.73;;;13.50;99.80;;;;;;5110883;28;20461;-71
2021/05/21 03:12:52;;;;;;;1.93;1.40;;;13.50;99.60;;;;;;5110583;27;20426;-71
2021/05/21 03:15:17;;;;;;;1.60;1.50;;;13.60;99.60;;;;;;5109929;28;20786;-70
2021/05/21 03:17:44;;;;;;;2.83;1.30;;;13.50;99.50;;;;;;5121590;28;20920;-70
2021/05/21 03:20:10;;;;;;;1.80;1.53;;;13.50;99.60;;;;;;5132248;27;20175;-70
2021/05/21 03:22:36;;;;;;;2.50;1.57;;;13.50;99.70;;;;;;5132490;27;20886;-70
2021/05/21 03:25:03;;;;;;;1.50;1.30;;;13.60;99.70;;;;;;5132788;28;20425;-70
2021/05/21 03:27:30;;;;;;;1.43;1.33;;;13.60;99.60;;;;;;5130015;27;20262;-71
2021/05/21 03:29:55;;;;;;;2.03;1.40;;;13.60;99.60;;;;;;5130696;27;20564;-71
2021/05/21 03:32:21;;;;;;;3.20;1.70;;;13.60;99.70;;;;;;5130715;28;20936;-70
2021/05/21 03:34:47;;;;;;;3.00;1.77;;;13.60;99.70;;;;;;5130505;28;20198;-70
2021/05/21 03:37:12;;;;;;;1.70;1.60;;;13.60;99.60;;;;;;5131122;28;20207;-70
2021/05/21 03:39:38;;;;;;;2.00;1.50;;;13.70;99.50;;;;;;5127846;28;20433;-70
2021/05/21 03:42:05;;;;;;;1.90;1.60;;;13.70;99.50;;;;;;5119563;27;20212;-71
2021/05/21 03:44:31;;;;;;;3.43;1.63;;;13.70;99.50;;;;;;5096447;28;20483;-70
2021/05/21 03:46:57;;;;;;;3.07;1.83;;;13.60;99.50;;;;;;5096285;28;20872;-70
2021/05/21 03:49:23;;;;;;;3.10;2.80;;;13.60;99.60;;;;;;5097631;28;20203;-70
2021/05/21 03:51:49;;;;;;;2.10;1.60;;;13.60;99.70;;;;;;5096105;28;20407;-70
2021/05/21 03:54:15;;;;;;;2.70;1.50;;;13.60;99.70;;;;;;5096326;28;20172;-70
2021/05/21 03:56:41;;;;;;;2.37;1.50;;;13.60;99.70;;;;;;5099400;27;20462;-70
2021/05/21 03:59:06;;;;;;;2.90;1.40;;;13.60;99.70;;;;;;5107866;28;20225;-71
2021/05/21 04:01:32;;;;;;;1.93;1.57;;;13.60;99.80;;;;;;5105858;28;20183;-70
2021/05/21 04:03:57;;;;;;;3.33;1.40;;;13.60;99.80;;;;;;5106905;28;20177;-70
2021/05/21 04:06:23;;;;;;;2.03;1.53;;;13.60;99.90;;;;;;5105655;27;20209;-70
2021/05/21 04:08:49;;;;;;;2.30;1.43;;;13.50;99.90;;;;;;5096834;28;20645;-70
2021/05/21 04:11:14;;;;;;;2.57;1.47;;;13.50;99.90;;;;;;5095543;28;20219;-70
2021/05/21 04:13:40;;;;;;;3.70;1.63;;;13.50;99.90;;;;;;5101844;28;20218;-71
2021/05/21 04:16:06;;;;;;;1.53;1.43;;;13.50;99.90;;;;;;5099900;28;20196;-70
2021/05/21 04:18:32;;;;;;;1.73;1.40;;;13.50;99.90;;;;;;5097060;27;20515;-71
2021/05/21 04:20:58;;;;;;;3.93;1.93;;;13.50;99.90;;;;;;5095833;28;20184;-70
2021/05/21 04:23:24;;;;;;;2.93;1.70;;;13.50;99.90;;;;;;5095866;28;20513;-71
2021/05/21 04:25:51;;;;;;;2.80;1.60;;;13.50;99.90;;;;;;5095748;28;20430;-70
2021/05/21 04:28:16;;;;;;;2.97;1.47;;;13.50;99.90;;;;;;5096173;27;20197;-71
2021/05/21 04:30:42;;;;;;;1.90;1.70;;;13.60;99.90;;;;;;5093828;28;20465;-70
2021/05/21 04:33:07;;;;;;;1.50;1.40;;;13.60;99.90;;;;;;5095247;28;20172;-71
2021/05/21 04:35:33;;;;;;;2.70;1.70;;;13.70;99.90;;;;;;5095283;28;20181;-71
2021/05/21 04:37:58;;;;;;;2.90;1.57;;;13.70;99.80;;;;;;5096231;28;20165;-70
2021/05/21 04:40:24;;;;;;;3.63;1.63;;;13.70;99.80;;;;;;5096268;28;20177;-70
2021/05/21 04:42:49;;;;;;;3.43;1.50;;;13.80;99.80;;;;;;5097466;27;20188;-69
2021/05/21 04:45:15;;;;;;;3.30;2.07;;;13.80;99.70;;;;;;5096859;28;20196;-70
2021/05/21 04:47:41;;;;;;;2.67;1.50;;;13.80;99.50;;;;;;5097862;28;20228;-68
2021/05/21 04:50:07;;;;;;;3.53;1.57;;;13.80;99.60;;;;;;5099870;27;20265;-68
2021/05/21 04:52:33;;;;;;;1.47;1.30;;;13.80;99.60;;;;;;5118022;27;20188;-69
2021/05/21 04:54:58;;;;;;;2.40;1.37;;;13.80;99.60;;;;;;5130028;27;20422;-69
2021/05/21 04:57:24;;;;;;;3.83;1.70;;;13.90;99.70;;;;;;5109506;28;20165;-69
2021/05/21 04:59:49;;;;;;;2.00;1.23;;;13.90;99.50;;;;;;5111649;27;20259;-70
2021/05/21 05:02:15;;;;;;;1.70;1.43;;;13.90;99.50;;;;;;5097601;28;20537;-70
2021/05/21 05:04:41;;;;;;;1.80;1.30;;;14.00;99.50;;;;;;5095023;28;20569;-69
2021/05/21 05:07:06;;;;;;;3.40;1.50;;;14.00;99.40;;;;;;5100596;27;20173;-69
2021/05/21 05:09:32;;;;;;;3.07;1.60;;;14.00;99.30;;;;;;5135597;27;20191;-70
2021/05/21 05:11:59;;;;;;;4.33;2.10;;;14.10;99.40;;;;;;5100544;27;20259;-70
2021/05/21 05:14:24;;;;;;;1.97;1.67;;;14.10;99.30;;;;;;5092490;27;20213;-70
2021/05/21 05:16:50;;;;;;;3.00;1.83;;;14.10;99.30;;;;;;5092803;28;20981;-70
2021/05/21 05:19:16;;;;;;;3.30;1.50;;;14.10;99.30;;;;;;5094421;28;20640;-70
2021/05/21 05:21:43;;;;;;;1.83;1.30;;;14.10;99.20;;;;;;5103255;28;20172;-70
2021/05/21 05:24:15;;;;;;;3.23;1.53;;;14.20;99.20;;;;;;5121705;27;20191;-70
2021/05/21 05:26:41;;;;;;;2.93;1.33;;;14.20;99.50;;;;;;5154371;27;20397;-71
2021/05/21 05:29:08;;;;;;;4.83;1.73;;;14.30;99.10;;;;;;5153039;27;20404;-71
2021/05/21 05:31:34;;;;;;;2.23;1.40;;;14.30;99.20;;;;;;5129031;27;20521;-71
2021/05/21 05:33:59;;;;;;;3.00;1.87;;;14.30;99.10;;;;;;5102238;28;20852;-70
2021/05/21 05:36:25;;;;;;;3.00;1.93;;;14.40;99.00;;;;;;5117516;28;20735;-68
2021/05/21 05:38:51;;;;;;;2.07;1.50;;;14.40;98.90;;;;;;5116419;28;20209;-70
2021/05/21 05:41:16;;;;;;;4.10;1.40;;;14.40;98.90;;;;;;5113038;28;20187;-70
2021/05/21 05:43:42;;;;;;;3.70;1.63;;;14.50;98.90;;;;;;5099076;27;20500;-70
2021/05/21 05:46:09;;;;;;;1.80;1.47;;;14.60;98.80;;;;;;5093630;28;20201;-70
2021/05/21 05:48:38;;;;;;;3.97;1.30;;;14.60;98.70;;;;;;5093846;28;20204;-69
2021/05/21 05:51:04;;;;;;;2.50;1.60;;;14.70;98.60;;;;;;5094641;28;20450;-70
2021/05/21 05:53:37;;;;;;;3.33;1.80;;;14.70;98.60;;;;;;5093757;28;20468;-69
2021/05/21 05:56:04;;;;;;;3.53;2.00;;;14.70;98.50;;;;;;5093859;28;20431;-70
2021/05/21 05:58:30;;;;;;;1.60;1.37;;;14.70;98.40;;;;;;5099227;27;20541;-71
2021/05/21 06:00:57;;;;;;;3.90;2.07;;;14.70;98.50;;;;;;5097550;27;20468;-69
2021/05/21 06:03:23;;;;;;;2.73;1.60;;;14.70;98.50;;;;;;5097354;28;20422;-70
2021/05/21 06:05:48;;;;;;;2.53;1.50;;;14.60;98.60;;;;;;5093255;28;20778;-71
2021/05/21 06:08:14;;;;;;;3.70;1.70;;;14.60;99.00;;;;;;5093836;28;20177;-70
2021/05/21 06:10:40;;;;;;;3.47;1.63;;;14.60;98.70;;;;;;5093829;28;20517;-70
2021/05/21 06:13:09;;;;;;;5.43;1.95;;;14.50;98.80;;;;;;5093898;27;20442;-70
2021/05/21 06:15:37;;;;;;;4.67;1.90;;;14.50;98.90;;;;;;5093109;28;20213;-70
2021/05/21 06:18:03;;;;;;;1.77;1.67;;;14.50;98.80;;;;;;5093301;28;20407;-70
2021/05/21 06:20:31;;;;;;;2.90;1.60;;;14.50;98.90;;;;;;5093570;28;20406;-70
2021/05/21 06:22:57;;;;;;;2.27;1.60;;;14.50;98.90;;;;;;5094352;28;20978;-70
2021/05/21 06:28:19;;;;;;;1.97;1.80;;;14.60;98.50;;;;;;5070136;28;20434;-71
2021/05/21 06:30:45;;;;;;;4.67;1.93;;;14.70;98.50;;;;;;5087993;28;20477;-70
2021/05/21 06:33:11;;;;;;;3.73;2.20;;;14.70;98.60;;;;;;5088517;28;20411;-70
2021/05/21 06:35:36;;;;;;;5.97;2.30;;;14.70;98.50;;;;;;5090502;28;20453;-70
2021/05/21 06:38:03;;;;;;;1.93;1.60;;;14.70;98.40;;;;;;5091221;28;20585;-70
2021/05/21 06:40:28;;;;;;;3.13;2.03;;;14.70;98.30;;;;;;5090734;28;20210;-71
2021/05/21 06:42:54;;;;;;;3.00;1.50;;;14.80;98.30;;;;;;5090721;28;20915;-71
2021/05/21 06:45:19;;;;;;;4.07;1.97;;;14.70;98.40;;;;;;5088895;28;20212;-70
2021/05/21 06:47:45;;;;;;;2.10;1.77;;;14.60;98.60;;;;;;5090793;28;20243;-70
2021/05/21 06:50:11;;;;;;;3.20;2.13;;;14.70;98.60;;;;;;5073864;28;20228;-71
2021/05/21 06:52:37;;;;;;;4.37;2.07;;;14.60;98.60;;;;;;5088721;28;20236;-70
2021/05/21 06:55:04;;;;;;;3.40;1.83;;;14.70;98.70;;;;;;5084734;28;20482;-70
2021/05/21 06:57:30;;;;;;;6.70;2.03;;;14.70;98.40;;;;;;5070209;28;20506;-70
2021/05/21 06:59:57;;;;;;;2.83;1.73;;;14.60;98.40;;;;;;5100305;28;20514;-71
2021/05/21 07:02:25;;;;;;;5.03;1.87;;;14.70;98.40;;;;;;5110964;28;20176;-70
2021/05/21 07:04:51;;;;;;;3.20;1.93;;;14.60;98.50;;;;;;5101938;28;20566;-70
2021/05/21 07:07:17;;;;;;;4.70;2.20;;;14.50;98.50;;;;;;5111267;28;20415;-70
2021/05/21 07:09:42;;;;;;;6.10;2.40;;;14.60;98.70;;;;;;5113244;28;20446;-71
2021/05/21 07:12:08;;;;;;;2.40;1.70;;;14.60;98.70;;;;;;5112885;28;20160;-71
2021/05/21 07:14:34;;;;;;;4.83;1.80;;;14.60;99.00;;;;;;5112403;28;20637;-71
2021/05/21 07:16:59;;;;;;;4.33;1.97;;;14.70;98.00;;;;;;5112916;28;20571;-70
2021/05/21 07:19:25;;;;;;;3.40;2.00;;;14.70;97.80;;;;;;5116650;28;20355;-70
2021/05/21 07:21:50;;;;;;;6.63;2.33;;;14.70;97.40;;;;;;5116720;27;20195;-70
2021/05/21 07:24:16;;;;;;;4.43;2.27;;;14.80;97.30;;;;;;5116480;28;20169;-70
2021/05/21 07:26:42;;;;;;;5.77;2.70;;;14.80;97.20;;;;;;5113888;28;20499;-70
2021/05/21 07:29:07;;;;;;;6.90;2.03;;;14.80;97.00;;;;;;5116586;28;20180;-71
2021/05/21 07:31:34;;;;;;;8.37;2.50;;;14.70;96.40;;;;;;5116792;28;20160;-70
2021/05/21 07:34:00;;;;;;;3.57;2.00;;;14.70;96.50;;;;;;5107913;27;20173;-71
2021/05/21 07:36:28;;;;;;;8.57;2.47;;;14.70;96.50;;;;;;5095700;28;20969;-71
2021/05/21 07:38:56;;;;;;;9.37;2.00;;;14.80;96.60;;;;;;5096084;28;20419;-70
2021/05/21 07:41:24;;;;;;;4.73;2.20;;;14.90;96.40;;;;;;5095979;28;20403;-71
2021/05/21 07:43:50;;;;;;;8.80;2.47;;;15.00;96.10;;;;;;5095864;28;20497;-71
2021/05/21 07:46:16;;;;;;;6.80;2.47;;;15.10;95.60;;;;;;5095838;28;20427;-71
2021/05/21 07:48:42;;;;;;;4.67;2.13;;;15.30;95.70;;;;;;5094772;27;20544;-71
2021/05/21 07:51:08;;;;;;;5.22;2.70;;;15.30;95.20;;;;;;5095572;28;20420;-70
2021/05/21 07:53:34;;;;;;;6.50;2.13;;;15.40;95.20;;;;;;5096478;28;20157;-70
2021/05/21 07:56:01;;;;;;;5.47;2.03;;;15.30;95.00;;;;;;5096046;28;20241;-70
2021/05/21 07:58:26;;;;;;;5.13;2.25;;;15.40;94.70;;;;;;5097365;27;20400;-71
2021/05/21 08:00:53;;;;;;;5.93;2.13;;;15.50;94.70;;;;;;5096587;28;20510;-71
2021/05/21 08:03:22;;;;;;;5.37;2.40;;;15.50;94.70;;;;;;5096038;28;20302;-70
2021/05/21 08:05:48;;;;;;;5.10;2.60;;;15.60;94.40;;;;;;5096178;28;20942;-71
2021/05/21 08:08:21;;;;;;;4.67;2.20;;;15.80;94.30;;;;;;5095028;28;20411;-70
2021/05/21 08:10:48;;;;;;;5.33;1.83;;;15.80;93.40;;;;;;5096065;28;20603;-70
2021/05/21 08:13:14;;;;;;;5.53;1.83;;;15.80;93.40;;;;;;5095720;27;20427;-70
2021/05/21 08:15:40;;;;;;;5.20;2.53;;;15.80;93.20;;;;;;5095915;28;20427;-71
2021/05/21 08:18:05;;;;;;;5.17;2.10;;;15.70;92.90;;;;;;5096503;28;20169;-71
2021/05/21 08:20:31;;;;;;;7.50;2.60;;;15.70;91.70;;;;;;5097758;28;20211;-71
2021/05/21 08:22:56;;;;;;;8.33;2.37;;;15.60;91.60;;;;;;5096629;28;20169;-70
2021/05/21 08:25:23;;;;;;;5.93;1.93;;;15.40;91.50;;;;;;5095809;28;20222;-70
2021/05/21 08:27:49;;;;;;;3.93;2.10;;;15.50;91.60;;;;;;5095562;28;20161;-70
2021/05/21 08:30:15;;;;;;;7.87;2.70;;;15.50;91.40;;;;;;5095975;28;20465;-70
2021/05/21 08:32:41;;;;;;;9.97;2.53;;;15.50;91.80;;;;;;5096830;28;20411;-70
2021/05/21 08:35:07;;;;;;;5.87;2.30;;;15.50;92.00;;;;;;5095740;28;20423;-70
2021/05/21 08:37:33;;;;;;;7.33;2.13;;;15.50;91.60;;;;;;5096195;28;20205;-70
2021/05/21 08:39:59;;;;;;;8.80;2.20;;;15.50;91.40;;;;;;5096367;28;20421;-70
2021/05/21 08:42:29;;;;;;;4.87;2.00;;;15.40;91.30;;;;;;5097984;28;20411;-69
2021/05/21 08:44:56;;;;;;;6.43;2.30;;;15.50;91.30;;;;;;5096266;28;20801;-70
2021/05/21 08:47:22;;;;;;;3.60;2.00;;;15.60;91.30;;;;;;5097237;27;20189;-70
2021/05/21 08:49:47;;;;;;;9.43;2.03;;;15.60;90.70;;;;;;5096884;28;20446;-70
2021/05/21 08:52:14;;;;;;;5.87;2.50;;;15.80;90.00;;;;;;5103753;28;20422;-70
2021/05/21 08:54:41;;;;;;;4.50;2.60;;;16.00;90.00;;;;;;5115983;28;20189;-69
2021/05/21 08:57:08;;;;;;;4.67;1.80;;;16.20;90.00;;;;;;5112002;28;20436;-70
2021/05/21 08:59:35;;;;;;;6.50;2.43;;;16.30;87.50;;;;;;5121045;27;20421;-70
2021/05/21 09:02:00;;;;;;;6.63;2.17;;;16.30;85.80;;;;;;5136824;27;20444;-70
2021/05/21 09:04:46;;;;;;;7.93;2.13;;;16.20;86.40;;;;;;5098724;27;20438;-70
2021/05/21 09:07:21;;;;;;;7.87;3.03;;;16.00;87.00;;;;;;5096412;28;20399;-69
2021/05/21 09:09:47;;;;;;;6.17;2.70;;;15.80;86.50;;;;;;5095055;27;20458;-70
2021/05/21 09:12:12;;;;;;;6.87;2.83;;;15.70;85.80;;;;;;5095484;28;20476;-71
2021/05/21 09:14:38;;;;;;;3.60;1.80;;;15.60;85.60;;;;;;5096977;28;20224;-70
2021/05/21 09:17:03;;;;;;;5.73;2.90;;;15.50;85.00;;;;;;5095401;28;20177;-70
2021/05/21 09:19:29;;;;;;;7.63;2.87;;;15.50;85.50;;;;;;5096903;27;20681;-71
2021/05/21 09:21:58;;;;;;;10.87;2.60;;;15.50;86.10;;;;;;5094480;28;20177;-71
2021/05/21 09:24:31;;;;;;;4.80;2.43;;;15.50;86.10;;;;;;5096191;28;20204;-70
2021/05/21 09:26:57;;;;;;;9.10;2.13;;;15.50;85.50;;;;;;5094338;28;20395;-70
2021/05/21 09:29:36;;;;;;;3.73;1.80;;;15.60;84.90;;;;;;5094455;28;20484;-71
2021/05/21 09:32:15;;;;;;;5.23;2.60;;;15.70;84.30;;;;;;5111851;28;20168;-71
2021/05/21 09:34:40;;;;;;;7.17;2.23;;;15.80;84.10;;;;;;5114957;28;20426;-71
2021/05/21 09:37:06;;;;;;;5.10;2.10;;;16.00;83.90;;;;;;5113617;28;20775;-71
2021/05/21 09:39:32;;;;;;;9.70;2.50;;;16.10;83.30;;;;;;5114422;28;20267;-70
2021/05/21 09:41:58;;;;;;;3.90;2.17;;;16.20;82.70;;;;;;5110249;28;20217;-71
2021/05/21 09:44:25;;;;;;;7.93;2.10;;;16.20;83.30;;;;;;5114214;27;20215;-71
2021/05/21 09:46:52;;;;;;;4.73;2.13;;;16.20;82.60;;;;;;5114906;28;20410;-71
2021/05/21 09:49:28;;;;;;;5.30;2.03;;;16.30;82.50;;;;;;5114435;28;20497;-71
2021/05/21 09:51:58;;;;;;;5.17;1.90;;;16.30;82.40;;;;;;5112797;28;20421;-71
2021/05/21 09:54:25;;;;;;;4.13;1.63;;;16.20;80.10;;;;;;5114681;28;20518;-70
2021/05/21 09:57:05;;;;;;;5.60;2.10;;;16.20;78.00;;;;;;5115469;28;20421;-70
2021/05/21 09:59:47;;;;;;;8.17;1.97;;;16.10;77.50;;;;;;5125019;27;20521;-70
2021/05/21 10:02:22;;;;;;;4.37;2.07;;;16.10;78.60;;;;;;5127031;27;20462;-70
2021/05/21 10:04:48;;;;;;;5.90;1.93;;;16.10;78.80;;;;;;5093844;28;20803;-70
2021/05/21 10:07:15;;;;;;;7.73;1.83;;;16.10;79.60;;;;;;5094726;28;20415;-71
2021/05/21 10:09:41;;;;;;;8.40;2.20;;;16.10;80.20;;;;;;5094286;28;20443;-70
2021/05/21 10:12:08;;;;;;;7.43;2.40;;;16.10;79.60;;;;;;5093842;27;20766;-71
2021/05/21 10:14:34;;;;;;;4.80;2.20;;;16.20;78.80;;;;;;5094713;28;20898;-71
2021/05/21 10:17:01;;;;;;;4.93;1.93;;;16.40;78.90;;;;;;5094155;28;20430;-70
2021/05/21 10:19:27;;;;;;;6.50;2.50;;;16.40;77.00;;;;;;5094100;28;20408;-70
2021/05/21 10:21:58;;;;;;;6.93;2.20;;;16.30;77.10;;;;;;5092096;28;20173;-70
2021/05/21 10:24:29;;;;;;;7.03;3.03;;;16.40;75.60;;;;;;5103768;27;20779;-70
2021/05/21 10:26:57;;;;;;;21.60;3.87;;;16.40;74.60;;;;;;5114288;28;20401;-70
2021/05/21 10:29:26;;;;;;;5.20;2.00;;;16.40;74.50;;;;;;5113491;28;20414;-70
2021/05/21 10:32:02;;;;;;;4.47;2.53;;;16.60;75.30;;;;;;5113805;28;20899;-71
2021/05/21 10:34:28;;;;;;;5.00;1.93;;;16.70;75.10;;;;;;5105647;27;20454;-70
2021/05/21 10:37:21;;;;;;;4.07;2.30;;;16.70;75.10;;;;;;5094692;28;20399;-71
2021/05/21 10:40:06;;;;;;;5.87;2.00;;;16.60;76.90;;;;;;5093862;28;20195;-71
2021/05/21 10:42:37;;;;;;;3.30;2.00;;;16.60;80.00;;;;;;5092927;28;20446;-71
2021/05/21 10:45:11;;;;;;;6.53;2.20;;;16.70;79.30;;;;;;5098945;28;20433;-70
2021/05/21 10:47:42;;;;;;;5.50;2.20;;;16.70;78.30;;;;;;5114245;27;20426;-70
2021/05/21 10:50:10;;;;;;;9.07;2.30;;;16.60;78.50;;;;;;5114146;28;20438;-71
2021/05/21 10:52:58;;;;;;;8.90;2.53;;;16.60;77.00;;;;;;5114239;28;20750;-71
2021/05/21 10:55:47;;;;;;;4.00;2.33;;;16.80;77.80;;;;;;5100847;28;20462;-72
2021/05/21 10:58:46;;;;;;;5.80;2.00;;;16.90;78.10;;;;;;5118490;27;20409;-70
2021/05/21 11:01:20;;;;;;;5.33;1.90;;;16.80;73.00;;;;;;5101221;27;20436;-70
2021/05/21 11:03:55;;;;;;;3.80;2.23;;;16.70;72.60;;;;;;5097125;28;20399;-71
2021/05/21 11:06:22;;;;;;;3.97;2.20;;;16.70;71.70;;;;;;5100770;28;20413;-69
2021/05/21 11:08:47;;;;;;;4.30;1.80;;;16.70;72.10;;;;;;5117560;28;20178;-69
2021/05/21 11:11:14;;;;;;;6.73;2.10;;;16.50;72.60;;;;;;5117538;28;20441;-70
2021/05/21 11:13:41;;;;;;;6.50;2.00;;;16.50;73.00;;;;;;5117104;27;20632;-72
2021/05/21 11:16:13;;;;;;;5.57;2.47;;;16.50;72.60;;;;;;5117443;28;20439;-70
2021/05/21 11:18:48;;;;;;;5.80;2.40;;;16.40;72.10;;;;;;5115938;28;20428;-71
2021/05/21 11:21:18;;;;;;;5.33;2.50;;;16.40;71.60;;;;;;5117459;28;20437;-70
2021/05/21 11:23:47;;;;;;;6.00;2.07;;;16.40;72.10;;;;;;5117267;27;20426;-71
2021/05/21 11:26:13;;;;;;;5.47;2.00;;;16.40;72.00;;;;;;5117200;27;20429;-70
2021/05/21 11:28:41;;;;;;;5.43;2.20;;;16.40;72.10;;;;;;5115447;28;20410;-71
2021/05/21 11:31:08;;;;;;;7.90;2.20;;;16.50;72.40;;;;;;5117419;28;20465;-70
2021/05/21 11:33:34;;;;;;;6.47;2.27;;;16.50;72.20;;;;;;5117323;28;20406;-71
2021/05/21 11:36:00;;;;;;;6.40;2.50;;;16.60;72.10;;;;;;5117472;28;20486;-71
2021/05/21 11:38:26;;;;;;;8.93;1.93;;;16.60;72.10;;;;;;5115513;28;20176;-70
2021/05/21 11:40:53;;;;;;;5.20;1.90;;;16.70;72.50;;;;;;5117964;28;20413;-71
2021/05/21 11:43:25;;;;;;;6.63;2.13;;;16.80;72.80;;;;;;5117041;28;20406;-71
2021/05/21 11:45:56;;;;;;;4.90;2.47;;;16.80;73.00;;;;;;5116998;28;20548;-71
2021/05/21 11:48:38;;;;;;;7.17;2.33;;;16.80;72.50;;;;;;5115323;28;20422;-70
2021/05/21 11:51:13;;;;;;;6.97;2.20;;;16.90;72.10;;;;;;5115876;28;20415;-71
2021/05/21 11:53:46;;;;;;;5.40;2.30;;;17.00;69.20;;;;;;5116873;27;20652;-71
2021/05/21 11:56:12;;;;;;;4.63;1.97;;;16.90;67.50;;;;;;5116900;28;20436;-70
2021/05/21 11:58:38;;;;;;;6.17;1.77;;;16.70;68.30;;;;;;5119846;27;20413;-71
2021/05/21 12:01:04;;;;;;;6.50;2.40;;;16.70;68.80;;;;;;5137287;27;20168;-70
2021/05/21 12:03:47;;;;;;;3.07;1.43;;;16.70;69.70;;;;;;5136962;27;20489;-70
2021/05/21 12:06:14;;;;;;;4.23;1.90;;;16.70;70.10;;;;;;5137061;27;20198;-71
2021/05/21 12:08:46;;;;;;;4.40;2.13;;;16.70;70.00;;;;;;5112407;27;20422;-71
2021/05/21 12:11:11;;;;;;;3.33;1.90;;;16.60;69.60;;;;;;5096835;28;20476;-70
2021/05/21 12:13:37;;;;;;;6.13;1.70;;;16.70;69.00;;;;;;5095937;27;20422;-70
2021/05/21 12:16:19;;;;;;;6.20;2.47;;;16.70;69.30;;;;;;5096000;28;20257;-70
2021/05/21 12:18:48;;;;;;;8.07;2.60;;;16.90;68.80;;;;;;5097836;28;20183;-69
2021/05/21 12:21:22;;;;;;;4.97;2.60;;;17.00;68.90;;;;;;5097626;28;20415;-70
2021/05/21 12:23:50;;;;;;;5.43;2.23;;;17.10;68.80;;;;;;5095111;28;20437;-70
2021/05/21 12:26:19;;;;;;;8.10;2.58;;;17.10;68.40;;;;;;5096712;28;20444;-69
2021/05/21 12:28:45;;;;;;;13.80;2.70;;;17.10;67.70;;;;;;5099451;28;20172;-72
2021/05/21 12:31:11;;;;;;;5.73;2.43;;;17.20;68.50;;;;;;5116146;28;20461;-70
2021/05/21 12:33:40;;;;;;;7.00;2.10;;;17.40;68.40;;;;;;5114245;28;20778;-71
2021/05/21 12:36:15;;;;;;;5.63;1.90;;;17.50;68.00;;;;;;5115343;28;20437;-71
2021/05/21 12:39:00;;;;;;;6.60;2.10;;;17.60;67.40;;;;;;5115970;27;20478;-70
2021/05/21 12:41:30;;;;;;;4.83;2.40;;;17.70;67.50;;;;;;5114177;28;20429;-70
2021/05/21 12:44:10;;;;;;;6.70;2.63;;;17.60;67.70;;;;;;5115739;28;20414;-71
2021/05/21 12:46:39;;;;;;;5.60;2.20;;;17.50;67.30;;;;;;5115650;27;20401;-70
2021/05/21 12:49:09;;;;;;;4.53;2.20;;;17.50;67.80;;;;;;5115632;27;20422;-70
2021/05/21 12:51:35;;;;;;;6.80;2.57;;;17.50;67.90;;;;;;5101631;28;20450;-72